Time;durP1;ratioP1;P1;durP2;ratioP2;P2;SDS_P1;SDS_P2;PMS_P1;PMS_P2;Temp;Humidity;BMP_temperature;BMP_pressure;BME280_temperature;BME280_humidity;BME280_pressure;Samples;Min_cycle;Max_cycle;Signal;HPM_P1;HPM_P2
2023/07/14 00:00:43;;;;;;;4.93;2.60;;;20.80;99.90;;;;;;5010915;28;20056;-85
2023/07/14 00:03:16;;;;;;;11.35;3.70;;;20.80;99.90;;;;;;5030089;28;20041;-85
2023/07/14 00:05:44;;;;;;;6.63;3.28;;;20.70;99.90;;;;;;5029098;28;20041;-85
2023/07/14 00:08:19;;;;;;;5.90;3.33;;;20.70;99.90;;;;;;5029999;28;25537;-85
2023/07/14 00:10:46;;;;;;;7.60;3.10;;;20.70;99.90;;;;;;5030994;28;20046;-85
2023/07/14 00:13:15;;;;;;;6.18;2.90;;;20.70;99.90;;;;;;5031181;28;20509;-84
2023/07/14 00:15:43;;;;;;;9.07;3.72;;;20.80;99.90;;;;;;5035322;28;20037;-84
2023/07/14 00:18:17;;;;;;;7.07;3.90;;;20.80;99.90;;;;;;5045739;28;20064;-84
2023/07/14 00:20:44;;;;;;;8.25;4.60;;;20.60;99.90;;;;;;5036589;28;20057;-86
2023/07/14 00:23:13;;;;;;;8.63;5.47;;;20.60;99.90;;;;;;5031632;28;20146;-83
2023/07/14 00:25:42;;;;;;;6.20;4.35;;;20.60;99.90;;;;;;5031425;28;20044;-85
2023/07/14 00:28:16;;;;;;;7.00;5.88;;;20.50;99.90;;;;;;5032489;28;20052;-85
2023/07/14 00:30:43;;;;;;;6.85;4.18;;;20.50;99.90;;;;;;5050009;28;20049;-84
2023/07/14 00:33:13;;;;;;;7.53;5.38;;;20.50;99.90;;;;;;5050003;28;20079;-84
2023/07/14 00:35:41;;;;;;;9.88;4.53;;;20.40;99.90;;;;;;5051107;28;20045;-85
2023/07/14 00:38:09;;;;;;;7.43;4.90;;;20.30;99.90;;;;;;5016993;28;20048;-84
2023/07/14 00:40:39;;;;;;;5.57;3.88;;;20.20;99.90;;;;;;5030548;28;20049;-85
2023/07/14 00:43:15;;;;;;;6.78;4.90;;;20.20;99.90;;;;;;5029451;28;20057;-84
2023/07/14 00:45:45;;;;;;;6.32;4.32;;;20.20;99.90;;;;;;5013846;28;20509;-84
2023/07/14 00:48:15;;;;;;;7.22;4.38;;;20.10;99.90;;;;;;5013581;28;20069;-84
2023/07/14 00:50:48;;;;;;;7.38;4.15;;;20.00;99.90;;;;;;5012486;28;20077;-85
2023/07/14 00:53:20;;;;;;;6.80;3.97;;;19.90;99.90;;;;;;5014006;28;20091;-85
2023/07/14 00:55:51;;;;;;;7.47;4.30;;;19.90;99.90;;;;;;5012731;28;20076;-84
2023/07/14 00:58:24;;;;;;;7.53;5.07;;;19.90;99.90;;;;;;5011667;28;20054;-85
2023/07/14 01:01:21;;;;;;;6.03;4.13;;;19.80;99.90;;;;;;5010814;28;20062;-85
2023/07/14 01:03:51;;;;;;;5.55;4.13;;;19.80;99.90;;;;;;5043967;28;20132;-85
2023/07/14 01:06:20;;;;;;;6.57;4.18;;;19.80;99.90;;;;;;5031197;28;20048;-84
2023/07/14 01:08:52;;;;;;;9.48;4.20;;;19.70;99.90;;;;;;5031416;28;20071;-85
2023/07/14 01:11:24;;;;;;;9.32;4.47;;;19.70;99.90;;;;;;5033636;28;20041;-84
2023/07/14 01:13:53;;;;;;;9.75;4.05;;;19.70;99.90;;;;;;5041290;28;20105;-83
2023/07/14 01:16:21;;;;;;;7.05;3.90;;;19.70;99.90;;;;;;5039684;28;20050;-84
2023/07/14 01:18:49;;;;;;;5.72;4.10;;;19.70;99.90;;;;;;5045368;28;20051;-84
2023/07/14 01:21:21;;;;;;;8.02;4.00;;;19.70;99.90;;;;;;5035047;28;20092;-84
2023/07/14 01:23:58;;;;;;;6.43;3.90;;;19.60;99.90;;;;;;5032144;28;20053;-83
2023/07/14 01:26:49;;;;;;;8.93;4.40;;;19.50;99.90;;;;;;5032224;28;20041;-84
2023/07/14 01:29:17;;;;;;;10.70;4.50;;;19.50;99.90;;;;;;5041809;28;20044;-84
2023/07/14 01:31:47;;;;;;;5.85;4.30;;;19.50;99.90;;;;;;5052951;28;20037;-84
2023/07/14 01:34:15;;;;;;;7.32;3.95;;;19.60;99.90;;;;;;5037131;28;20060;-85
2023/07/14 01:36:43;;;;;;;7.20;4.15;;;19.70;99.90;;;;;;5033087;28;20073;-84
2023/07/14 01:39:12;;;;;;;7.50;4.07;;;19.70;99.90;;;;;;5031378;28;20045;-85
2023/07/14 01:41:39;;;;;;;8.05;4.68;;;19.70;99.90;;;;;;5032088;28;20041;-84
2023/07/14 01:44:16;;;;;;;6.80;4.22;;;19.60;99.90;;;;;;5028373;28;20042;-84
2023/07/14 01:46:44;;;;;;;6.68;4.03;;;19.50;99.90;;;;;;5013934;28;20072;-85
2023/07/14 01:49:24;;;;;;;7.72;4.30;;;19.40;99.90;;;;;;5013723;28;20048;-85
2023/07/14 01:51:54;;;;;;;6.85;4.75;;;19.30;99.90;;;;;;5011044;28;20409;-84
2023/07/14 01:54:37;;;;;;;8.93;4.78;;;19.30;99.90;;;;;;5013062;28;20038;-84
2023/07/14 01:57:12;;;;;;;6.40;4.13;;;19.30;99.90;;;;;;5011723;28;20535;-85
2023/07/14 01:59:47;;;;;;;6.45;3.63;;;19.30;99.90;;;;;;5011791;28;20038;-84
2023/07/14 02:02:20;;;;;;;5.60;4.13;;;19.20;99.90;;;;;;5012371;28;20048;-84
2023/07/14 02:04:49;;;;;;;8.35;4.07;;;19.20;99.90;;;;;;5012273;28;20046;-84
2023/07/14 02:07:17;;;;;;;5.38;3.83;;;19.10;99.90;;;;;;5011860;28;20042;-85
2023/07/14 02:09:46;;;;;;;9.93;4.50;;;19.10;99.90;;;;;;5020455;28;20501;-85
2023/07/14 02:12:16;;;;;;;7.07;4.05;;;19.20;99.90;;;;;;5022266;28;20056;-86
2023/07/14 02:14:51;;;;;;;7.05;3.95;;;19.10;99.90;;;;;;5026510;28;20133;-84
2023/07/14 02:17:27;;;;;;;6.10;3.35;;;19.20;99.90;;;;;;5031033;28;20071;-85
2023/07/14 02:19:55;;;;;;;6.78;3.70;;;19.20;99.90;;;;;;5030705;28;20556;-86
2023/07/14 02:22:23;;;;;;;5.60;3.40;;;19.20;99.90;;;;;;5032001;28;20096;-85
2023/07/14 02:24:52;;;;;;;8.50;4.07;;;19.20;99.90;;;;;;5031270;28;20045;-84
2023/07/14 02:27:19;;;;;;;10.45;4.22;;;19.30;99.90;;;;;;5031147;28;20148;-85
2023/07/14 02:29:48;;;;;;;5.63;3.75;;;19.30;99.90;;;;;;5035634;28;20148;-86
2023/07/14 02:32:24;;;;;;;13.18;8.40;;;19.30;99.90;;;;;;5032505;28;20401;-85
2023/07/14 02:34:56;;;;;;;6.50;4.43;;;19.30;99.90;;;;;;5032867;28;20048;-84
2023/07/14 02:37:41;;;;;;;5.53;3.88;;;19.30;99.90;;;;;;5031181;28;20057;-84
2023/07/14 02:40:10;;;;;;;9.52;4.40;;;19.30;99.90;;;;;;5031604;28;20069;-85
2023/07/14 02:42:38;;;;;;;5.90;4.00;;;19.30;99.90;;;;;;5030844;28;20520;-84
2023/07/14 02:45:08;;;;;;;6.10;4.00;;;19.30;99.90;;;;;;5013616;28;20053;-86
2023/07/14 02:47:39;;;;;;;8.65;4.00;;;19.20;99.90;;;;;;5010766;28;20442;-85
2023/07/14 02:50:08;;;;;;;7.40;3.80;;;19.20;99.90;;;;;;5012165;28;20042;-85
2023/07/14 02:52:36;;;;;;;9.55;5.10;;;19.20;99.90;;;;;;5011250;28;20494;-85
2023/07/14 02:55:04;;;;;;;6.15;4.10;;;19.10;99.90;;;;;;5011118;28;20045;-86
2023/07/14 02:57:31;;;;;;;9.93;4.78;;;19.10;99.90;;;;;;5012050;28;20062;-84
2023/07/14 02:59:59;;;;;;;6.55;4.18;;;19.10;99.90;;;;;;5011809;28;20062;-88
2023/07/14 03:02:27;;;;;;;7.93;4.10;;;19.10;99.90;;;;;;5023469;28;20560;-85
2023/07/14 03:04:55;;;;;;;6.45;4.25;;;19.10;99.90;;;;;;5031731;28;20068;-84
2023/07/14 03:07:22;;;;;;;6.47;4.53;;;19.10;99.90;;;;;;5031498;28;20037;-84
2023/07/14 03:09:50;;;;;;;6.47;3.95;;;19.10;99.90;;;;;;5033036;28;20520;-88
2023/07/14 03:12:19;;;;;;;7.93;4.22;;;19.10;99.90;;;;;;5031445;28;20064;-84
2023/07/14 03:14:46;;;;;;;6.70;3.97;;;19.10;99.90;;;;;;5030321;28;20408;-84
2023/07/14 03:17:14;;;;;;;7.68;4.35;;;19.20;99.90;;;;;;5031792;28;20144;-86
2023/07/14 03:19:43;;;;;;;7.78;3.88;;;19.20;99.90;;;;;;5031887;28;20489;-85
2023/07/14 03:22:11;;;;;;;8.43;4.10;;;19.10;99.90;;;;;;5031057;28;20141;-83
2023/07/14 03:24:39;;;;;;;5.95;4.10;;;19.10;99.90;;;;;;5031372;28;20038;-84
2023/07/14 03:27:07;;;;;;;8.63;4.40;;;19.10;99.90;;;;;;5031499;28;20099;-84
2023/07/14 03:29:34;;;;;;;4.68;3.53;;;19.10;99.90;;;;;;5042044;28;20123;-84
2023/07/14 03:32:02;;;;;;;10.45;5.15;;;19.00;99.90;;;;;;5049270;28;20047;-85
2023/07/14 03:34:29;;;;;;;5.38;3.92;;;19.10;99.90;;;;;;5033818;28;20135;-85
2023/07/14 03:36:58;;;;;;;5.90;4.22;;;19.00;99.90;;;;;;5050394;28;20425;-84
2023/07/14 03:39:27;;;;;;;7.97;4.47;;;19.00;99.90;;;;;;5050740;28;20049;-84
2023/07/14 03:41:56;;;;;;;7.13;3.80;;;19.10;99.90;;;;;;5048044;28;20060;-85
2023/07/14 03:44:24;;;;;;;17.70;5.43;;;19.20;99.90;;;;;;5033605;28;20096;-86
2023/07/14 03:46:52;;;;;;;6.20;4.28;;;19.20;99.90;;;;;;5010026;28;20046;-85
2023/07/14 03:49:19;;;;;;;7.75;4.50;;;19.10;99.90;;;;;;5011475;28;20442;-85
2023/07/14 03:51:49;;;;;;;12.90;4.85;;;19.00;99.90;;;;;;5009071;28;20042;-85
2023/07/14 03:54:18;;;;;;;9.88;5.97;;;18.90;99.90;;;;;;5011445;28;20054;-85
2023/07/14 03:56:46;;;;;;;12.82;4.90;;;18.90;99.90;;;;;;5011399;28;20041;-85
2023/07/14 03:59:14;;;;;;;9.98;5.22;;;18.80;99.90;;;;;;5024172;28;20041;-85
2023/07/14 04:01:41;;;;;;;10.70;5.65;;;18.60;99.90;;;;;;5027037;28;20449;-87
2023/07/14 04:04:09;;;;;;;7.45;5.38;;;18.90;99.90;;;;;;5012839;28;20273;-86
2023/07/14 04:06:36;;;;;;;25.35;7.20;;;19.40;99.90;;;;;;5020558;28;20101;-85
2023/07/14 04:09:04;;;;;;;13.50;5.88;;;20.10;99.90;;;;;;5030410;28;20069;-86
2023/07/14 04:11:35;;;;;;;12.00;5.00;;;20.80;99.90;;;;;;5029510;28;20095;-84
2023/07/14 04:14:03;;;;;;;7.75;4.57;;;20.80;99.90;;;;;;5028703;28;20033;-84
2023/07/14 04:16:31;;;;;;;15.98;5.32;;;20.90;99.90;;;;;;5030587;28;20045;-86
2023/07/14 04:18:58;;;;;;;14.10;4.75;;;21.30;99.90;;;;;;5030887;28;20401;-84
2023/07/14 04:21:27;;;;;;;8.00;4.40;;;21.80;99.90;;;;;;5028204;28;20068;-83
2023/07/14 04:23:56;;;;;;;7.57;4.20;;;22.50;99.90;;;;;;5029986;28;20120;-84
2023/07/14 04:26:24;;;;;;;11.10;4.03;;;23.00;99.90;;;;;;5031137;28;20052;-84
2023/07/14 04:28:53;;;;;;;7.22;4.05;;;23.50;99.90;;;;;;5036625;28;20125;-84
2023/07/14 04:31:22;;;;;;;9.40;4.00;;;23.80;99.90;;;;;;5048417;28;20220;-84
2023/07/14 04:33:51;;;;;;;7.20;3.50;;;24.40;99.90;;;;;;5050227;28;20037;-84
2023/07/14 04:36:19;;;;;;;11.35;4.18;;;24.70;99.90;;;;;;5048396;28;20041;-85
2023/07/14 04:39:01;;;;;;;9.15;3.60;;;25.00;99.90;;;;;;5049778;28;20041;-84
2023/07/14 04:41:29;;;;;;;4.22;2.53;;;25.10;99.90;;;;;;5049150;28;20037;-83
2023/07/14 04:43:58;;;;;;;9.05;3.17;;;25.40;99.90;;;;;;5049289;28;20065;-84
2023/07/14 04:46:25;;;;;;;10.38;2.83;;;25.60;99.90;;;;;;5049979;28;20485;-84
2023/07/14 04:48:52;;;;;;;8.30;3.63;;;26.10;99.90;;;;;;5049277;28;20037;-83
2023/07/14 04:51:20;;;;;;;8.57;3.30;;;26.40;99.90;;;;;;5048479;28;20051;-82
2023/07/14 04:53:47;;;;;;;11.30;3.33;;;26.70;99.90;;;;;;5047820;28;20051;-84
2023/07/14 04:56:15;;;;;;;7.68;3.90;;;26.70;99.90;;;;;;5049070;28;20240;-83
2023/07/14 04:58:42;;;;;;;10.02;3.05;;;26.30;99.90;;;;;;5049590;28;20047;-84
2023/07/14 05:01:11;;;;;;;6.60;3.10;;;25.70;99.90;;;;;;5046213;28;20048;-84
2023/07/14 05:03:39;;;;;;;6.85;3.47;;;25.00;99.90;;;;;;5029226;28;20038;-84
2023/07/14 05:06:06;;;;;;;9.85;3.38;;;24.60;99.90;;;;;;5029306;28;20050;-83
2023/07/14 05:08:33;;;;;;;9.95;3.85;;;24.50;99.90;;;;;;5029427;28;20041;-83
2023/07/14 05:11:01;;;;;;;6.72;3.92;;;24.90;99.90;;;;;;5030359;28;20133;-83
2023/07/14 05:13:29;;;;;;;10.23;4.97;;;25.60;99.90;;;;;;5043511;28;20072;-83
2023/07/14 05:15:57;;;;;;;7.18;4.60;;;25.70;99.90;;;;;;5044116;28;20064;-82
2023/07/14 05:18:26;;;;;;;6.32;3.40;;;25.60;1.00;;;;;;5047994;28;20068;-83
2023/07/14 05:20:59;;;;;;;6.20;4.00;;;25.20;1.00;;;;;;5039864;28;20049;-83
2023/07/14 05:23:27;;;;;;;10.73;4.38;;;25.10;99.90;;;;;;5032896;28;20039;-82
2023/07/14 05:25:55;;;;;;;10.30;4.78;;;25.40;99.90;;;;;;5030094;28;20053;-83
2023/07/14 05:28:23;;;;;;;11.55;3.92;;;25.00;1.00;;;;;;5031914;28;20041;-83
2023/07/14 05:30:51;;;;;;;9.95;6.47;;;24.40;1.00;;;;;;5048642;28;20047;-82
2023/07/14 05:33:18;;;;;;;8.10;5.45;;;24.00;99.90;;;;;;5048477;28;20049;-84
2023/07/14 05:35:48;;;;;;;9.50;6.30;;;23.90;99.90;;;;;;5049144;28;20082;-83
2023/07/14 05:38:16;;;;;;;11.73;4.18;;;24.40;99.90;;;;;;5048560;28;20544;-84
2023/07/14 05:40:43;;;;;;;6.95;4.63;;;25.50;99.90;;;;;;5049765;28;20128;-83
2023/07/14 05:43:11;;;;;;;9.73;5.30;;;27.10;99.90;;;;;;5046388;28;20098;-82
2023/07/14 05:45:39;;;;;;;7.72;4.78;;;28.20;99.90;;;;;;5029258;28;20050;-83
2023/07/14 05:48:07;;;;;;;11.65;5.43;;;29.20;99.90;;;;;;5026885;28;20053;-83
2023/07/14 05:50:36;;;;;;;8.60;5.65;;;29.60;62.00;;;;;;5028002;28;20053;-83
2023/07/14 05:53:07;;;;;;;8.55;3.70;;;29.90;1.00;;;;;;5028517;28;20397;-83
2023/07/14 05:55:35;;;;;;;10.32;5.35;;;30.50;1.00;;;;;;5029063;28;20124;-82
2023/07/14 05:58:03;;;;;;;8.70;3.88;;;30.90;99.90;;;;;;5027438;28;20103;-83
2023/07/14 06:00:38;;;;;;;7.22;3.67;;;30.70;99.90;;;;;;5030282;28;20495;-82
2023/07/14 06:03:12;;;;;;;8.73;4.80;;;30.90;99.90;;;;;;5028634;28;20049;-84
2023/07/14 06:05:39;;;;;;;7.10;3.83;;;31.40;99.90;;;;;;5032215;28;20537;-84
2023/07/14 06:08:09;;;;;;;9.68;5.00;;;31.10;99.90;;;;;;5032189;28;20045;-82
2023/07/14 06:10:39;;;;;;;10.20;5.05;;;30.70;99.90;;;;;;5031890;28;20489;-81
2023/07/14 06:13:06;;;;;;;12.48;7.70;;;29.80;99.90;;;;;;5031975;28;20136;-81
2023/07/14 06:15:34;;;;;;;7.85;4.70;;;29.20;99.90;;;;;;5032054;28;20040;-82
2023/07/14 06:18:01;;;;;;;12.63;4.25;;;28.30;99.90;;;;;;5031872;28;20520;-81
2023/07/14 06:20:28;;;;;;;12.18;4.80;;;27.40;1.00;;;;;;5031793;28;20045;-82
2023/07/14 06:22:56;;;;;;;7.95;3.72;;;27.10;1.00;;;;;;5032432;28;20049;-82
2023/07/14 06:25:25;;;;;;;7.13;5.07;;;26.70;6.50;;;;;;5032199;28;20043;-82
2023/07/14 06:27:52;;;;;;;7.93;3.90;;;26.50;30.50;;;;;;5031845;28;20045;-83
2023/07/14 06:30:20;;;;;;;5.55;3.50;;;26.30;47.00;;;;;;5050301;28;20045;-83
2023/07/14 06:32:48;;;;;;;6.85;4.40;;;26.50;81.00;;;;;;5052558;28;20045;-82
2023/07/14 06:35:15;;;;;;;7.03;3.40;;;26.30;81.50;;;;;;5051624;28;20048;-82
2023/07/14 06:37:43;;;;;;;6.22;4.07;;;26.50;41.30;;;;;;5052345;28;20453;-83
2023/07/14 06:40:11;;;;;;;8.05;4.43;;;26.30;61.00;;;;;;5051750;28;20557;-82
2023/07/14 06:42:40;;;;;;;6.93;4.43;;;26.20;99.90;;;;;;5051803;28;20049;-82
2023/07/14 06:45:08;;;;;;;6.20;3.40;;;26.20;85.90;;;;;;5032740;28;20257;-81
2023/07/14 06:47:36;;;;;;;7.60;5.07;;;26.20;77.30;;;;;;5030647;28;20045;-82
2023/07/14 06:50:04;;;;;;;6.65;4.10;;;26.40;85.70;;;;;;5030933;28;20089;-82
2023/07/14 06:52:32;;;;;;;7.15;3.80;;;26.70;26.20;;;;;;5032908;28;20092;-82
2023/07/14 06:54:59;;;;;;;10.23;4.22;;;26.80;1.00;;;;;;5032106;28;20049;-83
2023/07/14 06:57:27;;;;;;;7.72;3.30;;;27.00;1.00;;;;;;5030586;28;20053;-82
2023/07/14 06:59:56;;;;;;;6.97;3.97;;;26.90;1.00;;;;;;5031745;28;20041;-84
2023/07/14 07:02:23;;;;;;;5.93;3.50;;;26.90;1.00;;;;;;5032452;28;20042;-81
2023/07/14 07:04:51;;;;;;;8.60;4.07;;;26.70;1.00;;;;;;5030931;28;20038;-83
2023/07/14 07:07:18;;;;;;;7.47;3.15;;;26.40;1.00;;;;;;5031478;28;20045;-82
2023/07/14 07:09:46;;;;;;;9.73;2.90;;;26.30;4.30;;;;;;5031822;28;20099;-81
2023/07/14 07:12:14;;;;;;;8.40;4.10;;;26.40;1.00;;;;;;5012354;28;20506;-82
2023/07/14 07:14:41;;;;;;;5.43;2.45;;;26.40;1.90;;;;;;5013305;28;20041;-84
2023/07/14 07:17:10;;;;;;;8.77;4.00;;;26.10;8.20;;;;;;5012144;28;20121;-83
2023/07/14 07:19:38;;;;;;;6.65;2.60;;;26.10;38.50;;;;;;5014921;28;20414;-83
2023/07/14 07:22:07;;;;;;;10.85;6.38;;;26.00;58.60;;;;;;5010842;28;20409;-83
2023/07/14 07:24:35;;;;;;;6.55;3.22;;;26.30;46.50;;;;;;5011054;28;20121;-83
2023/07/14 07:27:03;;;;;;;7.85;4.25;;;26.60;1.00;;;;;;5010996;28;20069;-83
2023/07/14 07:29:31;;;;;;;5.60;3.25;;;26.70;1.00;;;;;;5034630;28;20045;-82
2023/07/14 07:31:59;;;;;;;6.15;3.20;;;26.60;1.00;;;;;;5049126;28;20416;-84
2023/07/14 07:34:29;;;;;;;14.27;5.22;;;26.70;1.00;;;;;;5050829;28;20120;-86
2023/07/14 07:36:57;;;;;;;8.88;3.92;;;26.70;1.00;;;;;;5050213;28;20041;-81
2023/07/14 07:39:24;;;;;;;12.98;7.03;;;26.70;1.00;;;;;;5050320;28;20045;-81
2023/07/14 07:41:55;;;;;;;10.07;6.10;;;26.80;1.00;;;;;;5049701;28;20489;-81
2023/07/14 07:44:22;;;;;;;4.57;3.05;;;26.90;1.00;;;;;;5037851;28;20045;-83
2023/07/14 07:46:50;;;;;;;5.13;2.83;;;26.90;1.00;;;;;;5031084;28;20045;-83
2023/07/14 07:49:17;;;;;;;9.23;6.03;;;26.90;1.00;;;;;;5030791;28;20179;-82
2023/07/14 07:51:46;;;;;;;11.63;8.70;;;26.90;1.00;;;;;;5033801;28;20045;-81
2023/07/14 07:54:13;;;;;;;11.00;6.88;;;27.00;1.00;;;;;;5034648;28;20048;-81
2023/07/14 07:56:42;;;;;;;10.55;5.05;;;27.30;1.00;;;;;;5031054;28;20541;-83
2023/07/14 07:59:10;;;;;;;8.40;6.13;;;27.70;1.00;;;;;;5029060;28;20092;-83
2023/07/14 08:01:37;;;;;;;7.45;4.53;;;27.60;1.00;;;;;;5028140;28;20081;-82
2023/07/14 08:04:05;;;;;;;9.07;3.22;;;27.50;1.00;;;;;;5029869;28;20045;-82
2023/07/14 08:06:34;;;;;;;5.80;4.70;;;27.70;1.00;;;;;;5028418;28;20448;-82
2023/07/14 08:09:04;;;;;;;9.50;6.60;;;28.10;1.00;;;;;;5030106;28;20049;-83
2023/07/14 08:11:31;;;;;;;6.85;4.57;;;28.10;1.00;;;;;;5029066;28;20119;-83
2023/07/14 08:14:01;;;;;;;6.20;2.70;;;28.30;1.00;;;;;;5029597;28;20047;-83
2023/07/14 08:16:29;;;;;;;5.00;2.60;;;28.30;1.00;;;;;;5030082;28;20505;-82
2023/07/14 08:18:57;;;;;;;9.50;3.80;;;28.30;1.00;;;;;;5028303;28;20624;-82
2023/07/14 08:21:24;;;;;;;5.95;3.42;;;28.10;1.00;;;;;;5029128;28;20050;-83
2023/07/14 08:23:51;;;;;;;7.07;5.03;;;28.00;1.00;;;;;;5029566;28;20042;-81
2023/07/14 08:26:21;;;;;;;4.93;2.38;;;27.80;1.00;;;;;;5029434;28;20525;-82
2023/07/14 08:28:48;;;;;;;5.30;2.42;;;27.90;1.00;;;;;;5036198;28;20216;-82
2023/07/14 08:31:16;;;;;;;7.03;3.40;;;28.00;1.00;;;;;;5048947;28;20044;-83
2023/07/14 08:33:44;;;;;;;5.70;2.95;;;28.10;1.00;;;;;;5050005;28;20045;-82
2023/07/14 08:36:13;;;;;;;3.83;2.05;;;27.90;1.00;;;;;;5049586;28;20082;-82
2023/07/14 08:38:41;;;;;;;4.13;2.50;;;27.30;1.00;;;;;;5049610;28;20088;-82
2023/07/14 08:41:21;;;;;;;3.58;2.03;;;27.20;1.00;;;;;;5048631;28;20049;-83
2023/07/14 08:44:31;;;;;;;4.82;2.50;;;26.60;1.00;;;;;;5041800;28;20049;-82
2023/07/14 08:47:06;;;;;;;5.20;2.45;;;26.40;1.00;;;;;;4948982;29;20075;-84
2023/07/14 08:49:42;;;;;;;6.18;3.42;;;26.50;1.00;;;;;;4950590;29;20481;-82
2023/07/14 08:52:16;;;;;;;5.07;3.17;;;26.50;1.00;;;;;;4949138;29;20051;-83
2023/07/14 08:54:48;;;;;;;5.55;4.25;;;26.90;1.00;;;;;;4948644;29;20058;-83
2023/07/14 08:57:20;;;;;;;5.65;3.50;;;27.20;1.00;;;;;;4948507;29;20145;-83
2023/07/14 08:59:52;;;;;;;6.72;3.33;;;27.10;1.00;;;;;;4948097;29;20141;-83
2023/07/14 09:02:26;;;;;;;7.13;3.53;;;27.20;1.00;;;;;;4948101;28;20035;-82
2023/07/14 09:04:59;;;;;;;7.32;5.28;;;27.20;1.00;;;;;;4948006;28;20110;-81
2023/07/14 09:07:27;;;;;;;10.27;3.95;;;27.40;1.00;;;;;;4948712;29;20456;-81
2023/07/14 09:09:54;;;;;;;4.50;3.17;;;27.30;1.00;;;;;;4947801;28;20463;-83
2023/07/14 09:12:28;;;;;;;7.82;3.10;;;27.40;20.10;;;;;;4939885;29;20622;-83
2023/07/14 09:15:01;;;;;;;8.88;4.85;;;27.30;55.70;;;;;;4955910;28;20043;-82
2023/07/14 09:17:43;;;;;;;8.57;5.82;;;27.40;1.00;;;;;;4978073;28;20109;-81
2023/07/14 09:20:42;;;;;;;6.15;3.67;;;27.40;3.50;;;;;;5019468;28;20046;-83
2023/07/14 09:23:24;;;;;;;7.90;5.95;;;27.30;1.00;;;;;;5000882;28;20502;-82
2023/07/14 09:25:56;;;;;;;10.55;8.70;;;27.50;60.30;;;;;;5009364;28;20045;-83
2023/07/14 09:28:33;;;;;;;16.20;11.25;;;28.00;1.00;;;;;;5015199;28;20045;-83
2023/07/14 09:31:06;;;;;;;14.18;10.20;;;28.00;1.00;;;;;;5047778;28;20060;-83
2023/07/14 09:33:46;;;;;;;6.80;4.50;;;27.80;99.90;;;;;;5047812;28;20520;-82
2023/07/14 09:36:13;;;;;;;9.10;3.40;;;27.80;1.00;;;;;;5048611;28;20075;-82
2023/07/14 09:38:46;;;;;;;5.45;3.67;;;27.60;1.00;;;;;;5049297;28;20049;-82
2023/07/14 09:41:16;;;;;;;5.30;3.25;;;27.40;1.00;;;;;;5051268;28;20048;-82
2023/07/14 09:43:47;;;;;;;6.15;4.07;;;27.40;1.00;;;;;;5048802;28;20064;-82
2023/07/14 09:46:17;;;;;;;10.23;6.22;;;27.90;1.00;;;;;;5033421;28;20095;-82
2023/07/14 09:48:49;;;;;;;8.07;4.38;;;27.90;1.00;;;;;;5032738;28;20091;-82
2023/07/14 09:51:21;;;;;;;9.48;4.00;;;28.20;99.90;;;;;;5031855;28;20045;-83
2023/07/14 09:53:58;;;;;;;5.60;3.05;;;28.20;81.00;;;;;;5032627;28;20067;-83
2023/07/14 09:56:30;;;;;;;6.38;4.80;;;28.20;1.00;;;;;;5032208;28;20233;-82
2023/07/14 09:59:02;;;;;;;5.57;4.10;;;28.50;1.00;;;;;;5033429;28;20034;-82
2023/07/14 10:01:32;;;;;;;8.07;3.50;;;28.80;99.90;;;;;;5031764;28;20037;-82
2023/07/14 10:04:12;;;;;;;5.10;3.72;;;28.80;99.90;;;;;;5032036;28;20037;-82
2023/07/14 10:06:41;;;;;;;8.23;4.70;;;28.50;99.90;;;;;;5032182;28;20490;-80
2023/07/14 10:09:11;;;;;;;4.47;3.70;;;29.10;99.90;;;;;;5032337;28;20420;-83
2023/07/14 10:11:44;;;;;;;5.97;4.45;;;29.50;99.90;;;;;;5031764;28;20115;-82
2023/07/14 10:14:20;;;;;;;11.60;4.53;;;29.90;99.90;;;;;;5031973;28;20588;-82
2023/07/14 10:16:49;;;;;;;9.95;3.92;;;30.30;99.90;;;;;;5032398;28;20421;-82
2023/07/14 10:19:19;;;;;;;6.82;4.75;;;30.10;99.90;;;;;;5031742;28;20045;-82
2023/07/14 10:21:53;;;;;;;12.20;7.22;;;29.80;99.90;;;;;;5030368;28;20057;-83
2023/07/14 10:24:21;;;;;;;9.63;7.72;;;30.20;99.90;;;;;;5031867;28;20061;-83
2023/07/14 10:26:57;;;;;;;14.15;4.68;;;30.50;99.90;;;;;;5031941;28;20049;-82
2023/07/14 10:29:27;;;;;;;6.43;4.32;;;30.30;99.90;;;;;;5042544;28;20037;-83
2023/07/14 10:32:05;;;;;;;7.63;5.03;;;30.10;99.90;;;;;;5051077;28;20048;-83
2023/07/14 10:34:52;;;;;;;5.90;4.40;;;30.10;99.90;;;;;;5050711;28;20456;-83
2023/07/14 10:37:24;;;;;;;16.85;6.28;;;30.50;99.90;;;;;;5052087;28;20048;-83
2023/07/14 10:39:56;;;;;;;7.78;5.93;;;31.00;99.90;;;;;;5046618;28;20046;-84
2023/07/14 10:42:28;;;;;;;9.65;5.20;;;31.20;99.90;;;;;;5043751;22;20077;-77
2023/07/14 10:44:57;;;;;;;8.57;6.28;;;31.20;99.90;;;;;;5031361;28;20049;-77
2023/07/14 10:47:33;;;;;;;6.90;5.10;;;31.10;99.90;;;;;;5032187;28;20049;-76
2023/07/14 10:50:08;;;;;;;5.68;5.00;;;31.00;99.90;;;;;;5031508;28;20052;-77
2023/07/14 10:52:40;;;;;;;6.65;5.07;;;30.70;99.90;;;;;;5033022;28;20064;-76
2023/07/14 10:55:16;;;;;;;9.23;5.18;;;30.50;99.90;;;;;;5032023;28;20567;-76
2023/07/14 10:57:50;;;;;;;6.53;5.50;;;30.00;99.90;;;;;;5032351;28;20046;-75
2023/07/14 11:00:25;;;;;;;15.60;6.30;;;29.40;99.90;;;;;;5031889;28;20519;-76
2023/07/14 11:03:04;;;;;;;8.05;4.43;;;29.20;99.90;;;;;;5032546;28;20536;-77
2023/07/14 11:05:33;;;;;;;9.18;6.00;;;29.20;99.90;;;;;;5033771;28;20049;-77
2023/07/14 11:08:01;;;;;;;6.53;4.70;;;29.40;99.90;;;;;;5033812;28;20120;-76
2023/07/14 11:10:42;;;;;;;7.63;4.97;;;29.80;99.90;;;;;;5033686;28;20045;-75
2023/07/14 11:13:16;;;;;;;10.13;8.23;;;30.20;99.90;;;;;;5032259;28;20052;-76
2023/07/14 11:15:48;;;;;;;9.73;5.35;;;30.70;99.90;;;;;;5032745;28;20041;-79
2023/07/14 11:18:26;;;;;;;8.27;5.80;;;31.00;99.90;;;;;;5033364;28;20059;-77
2023/07/14 11:21:17;;;;;;;6.22;4.72;;;31.20;99.90;;;;;;5032106;28;20046;-78
2023/07/14 11:23:52;;;;;;;8.70;5.47;;;31.60;99.90;;;;;;5032555;28;20041;-76
2023/07/14 11:26:27;;;;;;;7.53;5.68;;;31.70;99.90;;;;;;5032351;28;20041;-78
2023/07/14 11:29:04;;;;;;;6.28;4.68;;;31.50;99.90;;;;;;5032129;28;20053;-77
2023/07/14 11:31:35;;;;;;;16.05;14.35;;;31.60;99.90;;;;;;5032644;28;20045;-76
2023/07/14 11:34:26;;;;;;;8.45;5.53;;;31.40;99.90;;;;;;5031873;28;20250;-76
2023/07/14 11:37:11;;;;;;;7.55;5.32;;;31.30;99.90;;;;;;5042552;28;20041;-75
2023/07/14 11:39:45;;;;;;;8.45;5.18;;;31.10;99.90;;;;;;5054977;28;20497;-79
2023/07/14 11:42:22;;;;;;;8.35;6.53;;;30.90;99.90;;;;;;5057862;28;20049;-78
2023/07/14 11:44:51;;;;;;;8.13;5.25;;;30.70;99.90;;;;;;5038883;28;20042;-76
2023/07/14 11:47:27;;;;;;;7.55;4.60;;;30.40;99.90;;;;;;5033373;28;20072;-77
2023/07/14 11:49:56;;;;;;;8.38;6.30;;;30.10;99.90;;;;;;5032689;28;20068;-76
2023/07/14 11:52:26;;;;;;;6.47;4.40;;;30.10;99.90;;;;;;5032124;28;20497;-76
2023/07/14 11:55:03;;;;;;;6.28;4.55;;;30.20;99.90;;;;;;5033117;28;20049;-77
2023/07/14 11:57:46;;;;;;;8.88;4.70;;;30.20;99.90;;;;;;5032686;28;20057;-77
2023/07/14 12:00:23;;;;;;;6.93;4.80;;;30.00;99.90;;;;;;5032508;28;20091;-76
2023/07/14 12:02:59;;;;;;;7.90;4.78;;;30.10;99.90;;;;;;5032433;28;20053;-77
2023/07/14 12:05:35;;;;;;;6.55;4.15;;;30.10;99.90;;;;;;5032846;28;20128;-78
2023/07/14 12:08:37;;;;;;;17.88;16.02;;;29.80;99.90;;;;;;5032562;28;20119;-78
2023/07/14 12:11:04;;;;;;;7.95;5.70;;;29.60;99.90;;;;;;5021395;28;20056;-77
2023/07/14 12:13:37;;;;;;;9.98;8.93;;;29.50;99.90;;;;;;5033341;28;20123;-76
2023/07/14 12:16:24;;;;;;;6.10;4.57;;;29.40;99.90;;;;;;5033712;28;20045;-77
2023/07/14 12:19:04;;;;;;;6.30;3.92;;;29.40;99.90;;;;;;5035915;28;20123;-77
2023/07/14 12:21:42;;;;;;;5.95;3.78;;;29.10;99.90;;;;;;5035739;28;20502;-76
2023/07/14 12:24:15;;;;;;;5.90;3.45;;;29.00;99.90;;;;;;5034200;28;20045;-78
2023/07/14 12:26:52;;;;;;;5.82;4.70;;;28.80;99.90;;;;;;5032177;28;20041;-77
2023/07/14 12:29:21;;;;;;;5.68;3.50;;;28.80;99.90;;;;;;5032871;28;20041;-77
2023/07/14 12:31:54;;;;;;;6.90;3.72;;;28.90;99.90;;;;;;5033415;28;20037;-76
2023/07/14 12:34:24;;;;;;;7.93;4.30;;;28.90;99.90;;;;;;5053466;28;20044;-76
2023/07/14 12:36:53;;;;;;;5.95;3.40;;;28.80;99.90;;;;;;5053312;28;20045;-77
2023/07/14 12:39:21;;;;;;;5.97;3.55;;;28.70;99.90;;;;;;5053191;28;20057;-76
2023/07/14 12:41:51;;;;;;;6.38;4.13;;;28.70;99.90;;;;;;5053658;28;20047;-76
2023/07/14 12:44:30;;;;;;;7.40;4.82;;;28.60;99.90;;;;;;5040987;28;20046;-76
2023/07/14 12:46:57;;;;;;;23.52;5.32;;;28.70;99.90;;;;;;5033181;28;20315;-76
2023/07/14 12:49:33;;;;;;;7.88;5.85;;;28.60;99.90;;;;;;5032025;28;20030;-77
2023/07/14 12:52:07;;;;;;;6.30;3.97;;;28.60;99.90;;;;;;5031629;28;20099;-76
2023/07/14 12:54:35;;;;;;;6.03;4.10;;;28.70;99.90;;;;;;5032349;28;20490;-76
2023/07/14 12:57:03;;;;;;;6.18;4.82;;;28.90;99.90;;;;;;5031351;28;20045;-76
2023/07/14 12:59:31;;;;;;;6.05;3.60;;;29.10;99.90;;;;;;5028958;28;20405;-76
2023/07/14 13:01:59;;;;;;;8.43;4.70;;;29.10;99.90;;;;;;5029872;28;20038;-74
2023/07/14 13:04:26;;;;;;;5.65;4.10;;;29.30;99.90;;;;;;5030409;28;20076;-75
2023/07/14 13:07:04;;;;;;;5.30;3.58;;;29.50;99.90;;;;;;5030476;28;20048;-76